< Cyclone 199007 1990 Season Cyclone 199009 >
Cyclone 199008 (WALTER)
General InformationTrack Information on Google MapsDetailed Wind InformationList of All Images || ResourceGoogle EarthGE AnimationAtom FeedGeoJSON
Detalied Best Track (Time Zone = UTC)
Year Month Day Hour Lat. Long. Pressure (hPa) Wind (kt) Class Image Chart
1990 3 3 18 -14.5 94.0 1000 31 2 Image --
1990 3 4 00 -14.7 94.0 1000 31 2 Image --
1990 3 4 06 -15.1 94.1 1000 31 2 Image --
1990 3 4 12 -15.6 94.4 998 35 3 Image --
1990 3 4 18 -16.1 94.8 995 39 3 Image --
1990 3 5 00 -16.9 95.5 995 39 3 Image --
1990 3 5 06 -17.6 96.2 992 43 3 Image --
1990 3 5 12 -18.2 96.8 990 47 3 Image --
1990 3 5 18 -19.1 97.4 987 51 4 Image --
1990 3 6 00 -19.9 98.0 985 54 4 Image --
1990 3 6 06 -20.4 98.2 985 54 4 Image --
1990 3 6 12 -20.9 98.0 988 49 4 Image --
1990 3 6 18 -21.2 97.5 991 45 3 Image --
1990 3 7 00 -21.1 96.8 993 41 3 Image --
1990 3 7 06 -21.0 95.8 995 39 3 Image --
1990 3 7 12 -20.8 95.6 995 39 3 Image --
1990 3 7 18 -20.4 95.0 995 39 3 Image --
1990 3 8 00 -20.1 94.9 995 39 3 Image --
1990 3 8 06 -19.7 95.0 996 37 3 Image --
1990 3 8 12 -19.2 95.1 998 35 3 Image --
1990 3 8 18 -18.5 95.4 999 33 2 Image --
1990 3 9 00 -17.4 95.9 1000 31 2 Image --
1990 3 9 06 -16.9 96.3 1002 27 2 Image --
1990 3 9 12 -16.5 96.6 1002 27 2 Image --
1990 3 9 18 -16.1 96.8 1002 27 2 Image --
1990 3 10 00 -15.7 97.2 1003 27 2 Image --
1990 3 10 06 -15.3 97.8 1004 25 2 Image --
1990 3 10 12 -15.1 98.2 1003 27 2 Image --
1990 3 10 18 -14.7 98.3 1002 27 2 Image --
1990 3 11 00 -14.2 98.4 1002 27 2 Image --
1990 3 11 06 -13.9 98.2 1000 31 2 Image --
1990 3 11 12 -13.7 98.0 1000 31 2 Image --
1990 3 11 18 -13.4 97.7 1000 31 2 Image --
1990 3 12 00 -13.2 97.4 998 35 3 Image --
1990 3 12 06 -13.1 97.0 997 35 3 Image --
1990 3 12 12 -12.7 95.7 997 35 3 Image --
1990 3 12 18 -12.5 94.4 996 37 3 Image --
1990 3 13 00 -12.2 93.2 990 47 3 Image --
1990 3 13 06 -12.0 91.8 988 49 4 Image --
1990 3 13 12 -11.9 90.8 985 54 4 Image --
1990 3 13 18 -11.7 89.6 983 56 4 Image --
1990 3 14 00 -11.6 89.0 980 60 4 Image --
1990 3 14 06 -11.5 88.5 978 64 5 Image --
1990 3 14 12 -11.5 87.8 976 66 5 Image --
< Cyclone 199007 1990 Season Cyclone 199009 >

Help